sensor_id;sensor_type;location;lat;lon;timestamp;temperature;humidity
59923;DHT22;45778;51.142;3.732;2024-01-11T00:00:32;-2.70;99.90
59923;DHT22;45778;51.142;3.732;2024-01-11T00:02:57;-2.60;99.90
59923;DHT22;45778;51.142;3.732;2024-01-11T00:05:23;-2.40;99.90
59923;DHT22;45778;51.142;3.732;2024-01-11T00:07:49;-2.60;99.90
59923;DHT22;45778;51.142;3.732;2024-01-11T00:10:15;-2.50;99.90
59923;DHT22;45778;51.142;3.732;2024-01-11T00:12:41;-2.60;99.90
59923;DHT22;45778;51.142;3.732;2024-01-11T00:15:07;-2.70;99.90
59923;DHT22;45778;51.142;3.732;2024-01-11T00:17:33;-2.80;99.90
59923;DHT22;45778;51.142;3.732;2024-01-11T00:19:59;-2.70;99.90
59923;DHT22;45778;51.142;3.732;2024-01-11T00:22:25;-2.60;99.90
59923;DHT22;45778;51.142;3.732;2024-01-11T00:24:50;-2.20;99.90
59923;DHT22;45778;51.142;3.732;2024-01-11T00:27:16;-2.50;99.90
59923;DHT22;45778;51.142;3.732;2024-01-11T00:32:17;-2.50;99.90
59923;DHT22;45778;51.142;3.732;2024-01-11T00:34:43;-2.50;99.90
59923;DHT22;45778;51.142;3.732;2024-01-11T00:37:09;-2.50;99.90
59923;DHT22;45778;51.142;3.732;2024-01-11T00:39:34;-2.50;99.90
59923;DHT22;45778;51.142;3.732;2024-01-11T00:42:00;-2.60;99.90
59923;DHT22;45778;51.142;3.732;2024-01-11T00:44:25;-2.70;99.90
59923;DHT22;45778;51.142;3.732;2024-01-11T00:46:51;-2.70;99.90
59923;DHT22;45778;51.142;3.732;2024-01-11T00:49:18;-2.70;99.90
59923;DHT22;45778;51.142;3.732;2024-01-11T00:51:44;-2.70;99.90
59923;DHT22;45778;51.142;3.732;2024-01-11T00:54:09;-2.70;99.90
59923;DHT22;45778;51.142;3.732;2024-01-11T00:56:35;-2.60;99.90
59923;DHT22;45778;51.142;3.732;2024-01-11T01:01:36;-2.40;99.90
59923;DHT22;45778;51.142;3.732;2024-01-11T01:04:02;-2.40;99.90
59923;DHT22;45778;51.142;3.732;2024-01-11T01:06:27;-2.30;99.90
59923;DHT22;45778;51.142;3.732;2024-01-11T01:11:28;-2.40;99.90
59923;DHT22;45778;51.142;3.732;2024-01-11T01:13:54;-1.80;99.90
59923;DHT22;45778;51.142;3.732;2024-01-11T01:16:20;-2.20;99.90
59923;DHT22;45778;51.142;3.732;2024-01-11T01:18:46;-2.50;99.90
59923;DHT22;45778;51.142;3.732;2024-01-11T01:21:11;-2.40;99.90
59923;DHT22;45778;51.142;3.732;2024-01-11T01:23:37;-2.30;99.90
59923;DHT22;45778;51.142;3.732;2024-01-11T01:26:03;-2.40;99.90
59923;DHT22;45778;51.142;3.732;2024-01-11T01:28:29;-2.60;99.90
59923;DHT22;45778;51.142;3.732;2024-01-11T01:30:54;-2.70;99.90
59923;DHT22;45778;51.142;3.732;2024-01-11T01:33:20;-2.60;99.90
59923;DHT22;45778;51.142;3.732;2024-01-11T01:35:48;-2.60;99.90
59923;DHT22;45778;51.142;3.732;2024-01-11T01:38:14;-2.60;99.90
59923;DHT22;45778;51.142;3.732;2024-01-11T01:40:40;-2.60;99.90
59923;DHT22;45778;51.142;3.732;2024-01-11T01:43:10;-2.70;99.90
59923;DHT22;45778;51.142;3.732;2024-01-11T01:45:35;-2.80;99.90
59923;DHT22;45778;51.142;3.732;2024-01-11T01:48:02;-2.90;99.90
59923;DHT22;45778;51.142;3.732;2024-01-11T01:50:28;-2.70;99.90
59923;DHT22;45778;51.142;3.732;2024-01-11T01:52:55;-2.70;99.90
59923;DHT22;45778;51.142;3.732;2024-01-11T01:55:22;-2.70;99.90
59923;DHT22;45778;51.142;3.732;2024-01-11T01:57:49;-2.90;99.90
59923;DHT22;45778;51.142;3.732;2024-01-11T02:02:52;-3.10;99.90
59923;DHT22;45778;51.142;3.732;2024-01-11T02:07:56;-3.20;99.90
59923;DHT22;45778;51.142;3.732;2024-01-11T02:10:23;-3.30;99.90
59923;DHT22;45778;51.142;3.732;2024-01-11T02:12:50;-3.30;99.90
59923;DHT22;45778;51.142;3.732;2024-01-11T02:15:18;-3.40;99.90
59923;DHT22;45778;51.142;3.732;2024-01-11T02:17:44;-3.40;99.90
59923;DHT22;45778;51.142;3.732;2024-01-11T02:20:10;-3.30;99.90
59923;DHT22;45778;51.142;3.732;2024-01-11T02:22:38;-3.30;99.90
59923;DHT22;45778;51.142;3.732;2024-01-11T02:25:08;-3.40;99.90
59923;DHT22;45778;51.142;3.732;2024-01-11T02:27:47;-3.40;99.90
59923;DHT22;45778;51.142;3.732;2024-01-11T02:30:14;-3.40;99.90
59923;DHT22;45778;51.142;3.732;2024-01-11T02:32:40;-3.50;99.90
59923;DHT22;45778;51.142;3.732;2024-01-11T02:35:06;-3.40;99.90
59923;DHT22;45778;51.142;3.732;2024-01-11T02:37:32;-3.40;99.90
59923;DHT22;45778;51.142;3.732;2024-01-11T02:39:58;-3.50;99.90
59923;DHT22;45778;51.142;3.732;2024-01-11T02:42:24;-3.50;99.90
59923;DHT22;45778;51.142;3.732;2024-01-11T02:44:50;-3.50;99.90
59923;DHT22;45778;51.142;3.732;2024-01-11T02:47:16;-3.50;99.90
59923;DHT22;45778;51.142;3.732;2024-01-11T02:49:41;-3.50;99.90
59923;DHT22;45778;51.142;3.732;2024-01-11T02:52:07;-3.50;99.90
59923;DHT22;45778;51.142;3.732;2024-01-11T02:54:32;-3.50;99.90
59923;DHT22;45778;51.142;3.732;2024-01-11T02:56:58;-3.30;99.90
59923;DHT22;45778;51.142;3.732;2024-01-11T02:59:24;-3.40;99.90
59923;DHT22;45778;51.142;3.732;2024-01-11T03:01:50;-3.40;99.90
59923;DHT22;45778;51.142;3.732;2024-01-11T03:04:15;-3.50;99.90
59923;DHT22;45778;51.142;3.732;2024-01-11T03:06:42;-3.50;99.90
59923;DHT22;45778;51.142;3.732;2024-01-11T03:09:08;-3.50;99.90
59923;DHT22;45778;51.142;3.732;2024-01-11T03:11:33;-3.30;99.90
59923;DHT22;45778;51.142;3.732;2024-01-11T03:13:59;-3.10;99.90
59923;DHT22;45778;51.142;3.732;2024-01-11T03:16:25;-3.10;99.90
59923;DHT22;45778;51.142;3.732;2024-01-11T03:18:50;-3.00;99.90
59923;DHT22;45778;51.142;3.732;2024-01-11T03:21:16;-3.20;99.90
59923;DHT22;45778;51.142;3.732;2024-01-11T03:23:42;-3.10;99.90
59923;DHT22;45778;51.142;3.732;2024-01-11T03:26:16;-3.10;99.90
59923;DHT22;45778;51.142;3.732;2024-01-11T03:28:41;-3.20;99.90
59923;DHT22;45778;51.142;3.732;2024-01-11T03:31:09;-3.30;99.90
59923;DHT22;45778;51.142;3.732;2024-01-11T03:33:34;-3.30;99.90
59923;DHT22;45778;51.142;3.732;2024-01-11T03:36:06;-3.50;99.90
59923;DHT22;45778;51.142;3.732;2024-01-11T03:38:32;-3.50;99.90
59923;DHT22;45778;51.142;3.732;2024-01-11T03:40:57;-3.40;99.90
59923;DHT22;45778;51.142;3.732;2024-01-11T03:43:23;-3.20;99.90
59923;DHT22;45778;51.142;3.732;2024-01-11T03:45:49;-3.10;99.90
59923;DHT22;45778;51.142;3.732;2024-01-11T03:48:14;-3.10;99.90
59923;DHT22;45778;51.142;3.732;2024-01-11T03:50:40;-3.00;99.90
59923;DHT22;45778;51.142;3.732;2024-01-11T03:53:08;-3.20;99.90
59923;DHT22;45778;51.142;3.732;2024-01-11T03:55:34;-3.30;99.90
59923;DHT22;45778;51.142;3.732;2024-01-11T03:58:00;-3.40;99.90
59923;DHT22;45778;51.142;3.732;2024-01-11T04:00:26;-3.40;99.90
59923;DHT22;45778;51.142;3.732;2024-01-11T04:02:52;-3.50;99.90
59923;DHT22;45778;51.142;3.732;2024-01-11T04:05:18;-3.50;99.90
59923;DHT22;45778;51.142;3.732;2024-01-11T04:07:43;-3.60;99.90
59923;DHT22;45778;51.142;3.732;2024-01-11T04:10:09;-3.60;99.90
59923;DHT22;45778;51.142;3.732;2024-01-11T04:12:35;-3.60;99.90
59923;DHT22;45778;51.142;3.732;2024-01-11T04:15:02;-3.60;99.90
59923;DHT22;45778;51.142;3.732;2024-01-11T04:17:28;-3.60;99.90
59923;DHT22;45778;51.142;3.732;2024-01-11T04:19:54;-3.60;99.90
59923;DHT22;45778;51.142;3.732;2024-01-11T04:22:20;-3.60;99.90
59923;DHT22;45778;51.142;3.732;2024-01-11T04:24:46;-3.60;99.90
59923;DHT22;45778;51.142;3.732;2024-01-11T04:27:11;-3.70;99.90
59923;DHT22;45778;51.142;3.732;2024-01-11T04:29:37;-3.60;99.90
59923;DHT22;45778;51.142;3.732;2024-01-11T04:32:03;-2.70;99.90
59923;DHT22;45778;51.142;3.732;2024-01-11T04:34:29;-3.10;99.90
59923;DHT22;45778;51.142;3.732;2024-01-11T04:36:54;-3.20;99.90
59923;DHT22;45778;51.142;3.732;2024-01-11T04:41:55;-2.90;99.90
59923;DHT22;45778;51.142;3.732;2024-01-11T04:44:24;-2.90;99.90
59923;DHT22;45778;51.142;3.732;2024-01-11T04:46:50;-2.90;99.90
59923;DHT22;45778;51.142;3.732;2024-01-11T04:49:15;-2.90;99.90
59923;DHT22;45778;51.142;3.732;2024-01-11T04:51:41;-2.80;99.90
59923;DHT22;45778;51.142;3.732;2024-01-11T04:54:07;-2.70;99.90
59923;DHT22;45778;51.142;3.732;2024-01-11T04:56:32;-2.70;99.90
59923;DHT22;45778;51.142;3.732;2024-01-11T04:58:58;-2.60;99.90
59923;DHT22;45778;51.142;3.732;2024-01-11T05:01:24;-2.80;99.90
59923;DHT22;45778;51.142;3.732;2024-01-11T05:03:49;-2.80;99.90
59923;DHT22;45778;51.142;3.732;2024-01-11T05:06:19;-2.90;99.90
59923;DHT22;45778;51.142;3.732;2024-01-11T05:08:50;-2.90;99.90
59923;DHT22;45778;51.142;3.732;2024-01-11T05:11:20;-2.80;99.90
59923;DHT22;45778;51.142;3.732;2024-01-11T05:13:47;-2.70;99.90
59923;DHT22;45778;51.142;3.732;2024-01-11T05:18:49;-2.80;99.90
59923;DHT22;45778;51.142;3.732;2024-01-11T05:21:15;-2.80;99.90
59923;DHT22;45778;51.142;3.732;2024-01-11T05:23:41;-2.70;99.90
59923;DHT22;45778;51.142;3.732;2024-01-11T05:26:08;-2.70;99.90
59923;DHT22;45778;51.142;3.732;2024-01-11T05:28:33;-2.60;99.90
59923;DHT22;45778;51.142;3.732;2024-01-11T05:31:00;-2.60;99.90
59923;DHT22;45778;51.142;3.732;2024-01-11T05:33:25;-2.50;99.90
59923;DHT22;45778;51.142;3.732;2024-01-11T05:35:54;-2.70;99.90
59923;DHT22;45778;51.142;3.732;2024-01-11T05:38:19;-2.80;99.90
59923;DHT22;45778;51.142;3.732;2024-01-11T05:40:45;-2.90;99.90
59923;DHT22;45778;51.142;3.732;2024-01-11T05:45:46;-2.80;99.90
59923;DHT22;45778;51.142;3.732;2024-01-11T05:50:47;-2.70;99.90
59923;DHT22;45778;51.142;3.732;2024-01-11T05:53:13;-2.70;99.90
59923;DHT22;45778;51.142;3.732;2024-01-11T05:55:39;-2.70;99.90
59923;DHT22;45778;51.142;3.732;2024-01-11T05:58:05;-2.70;99.90
59923;DHT22;45778;51.142;3.732;2024-01-11T06:00:31;-2.70;99.90
59923;DHT22;45778;51.142;3.732;2024-01-11T06:02:56;-2.70;99.90
59923;DHT22;45778;51.142;3.732;2024-01-11T06:05:22;-2.70;99.90
59923;DHT22;45778;51.142;3.732;2024-01-11T06:07:48;-2.70;99.90
59923;DHT22;45778;51.142;3.732;2024-01-11T06:10:14;-2.60;99.90
59923;DHT22;45778;51.142;3.732;2024-01-11T06:12:40;-2.60;99.90
59923;DHT22;45778;51.142;3.732;2024-01-11T06:15:07;-2.60;99.90
59923;DHT22;45778;51.142;3.732;2024-01-11T06:17:33;-2.60;99.90
59923;DHT22;45778;51.142;3.732;2024-01-11T06:22:24;-2.70;99.90
59923;DHT22;45778;51.142;3.732;2024-01-11T06:24:49;-2.50;99.90
59923;DHT22;45778;51.142;3.732;2024-01-11T06:29:51;-2.60;99.90
59923;DHT22;45778;51.142;3.732;2024-01-11T06:32:17;-2.60;99.90
59923;DHT22;45778;51.142;3.732;2024-01-11T06:34:42;-2.10;99.90
59923;DHT22;45778;51.142;3.732;2024-01-11T06:37:11;-2.30;99.90
59923;DHT22;45778;51.142;3.732;2024-01-11T06:39:37;-2.20;99.90
59923;DHT22;45778;51.142;3.732;2024-01-11T06:42:03;-2.30;99.90
59923;DHT22;45778;51.142;3.732;2024-01-11T06:44:28;-2.30;99.90
59923;DHT22;45778;51.142;3.732;2024-01-11T06:46:54;-2.30;99.90
59923;DHT22;45778;51.142;3.732;2024-01-11T06:49:20;-2.50;99.90
59923;DHT22;45778;51.142;3.732;2024-01-11T06:51:48;-2.40;99.90
59923;DHT22;45778;51.142;3.732;2024-01-11T06:54:14;-2.50;99.90
59923;DHT22;45778;51.142;3.732;2024-01-11T06:56:40;-2.60;99.90
59923;DHT22;45778;51.142;3.732;2024-01-11T06:59:05;-2.60;99.90
59923;DHT22;45778;51.142;3.732;2024-01-11T07:01:32;-2.70;99.90
59923;DHT22;45778;51.142;3.732;2024-01-11T07:03:58;-2.70;99.90
59923;DHT22;45778;51.142;3.732;2024-01-11T07:08:54;-2.70;99.90
59923;DHT22;45778;51.142;3.732;2024-01-11T07:16:30;-2.70;99.90
59923;DHT22;45778;51.142;3.732;2024-01-11T07:18:56;-2.60;99.90
59923;DHT22;45778;51.142;3.732;2024-01-11T07:21:23;-2.80;99.90
59923;DHT22;45778;51.142;3.732;2024-01-11T07:24:03;-2.80;99.90
59923;DHT22;45778;51.142;3.732;2024-01-11T07:26:28;-2.70;99.90
59923;DHT22;45778;51.142;3.732;2024-01-11T07:28:54;-2.80;99.90
59923;DHT22;45778;51.142;3.732;2024-01-11T07:31:20;-2.90;99.90
59923;DHT22;45778;51.142;3.732;2024-01-11T07:33:46;-2.90;99.90
59923;DHT22;45778;51.142;3.732;2024-01-11T07:36:12;-2.80;99.90
59923;DHT22;45778;51.142;3.732;2024-01-11T07:38:38;-2.80;99.90
59923;DHT22;45778;51.142;3.732;2024-01-11T07:41:03;-2.70;99.90
59923;DHT22;45778;51.142;3.732;2024-01-11T07:43:29;-2.80;99.90
59923;DHT22;45778;51.142;3.732;2024-01-11T07:45:56;-2.80;99.90
59923;DHT22;45778;51.142;3.732;2024-01-11T07:48:22;-2.80;99.90
59923;DHT22;45778;51.142;3.732;2024-01-11T07:50:49;-2.70;99.90
59923;DHT22;45778;51.142;3.732;2024-01-11T07:53:14;-2.90;99.90
59923;DHT22;45778;51.142;3.732;2024-01-11T07:55:40;-3.00;99.90
59923;DHT22;45778;51.142;3.732;2024-01-11T07:58:07;-3.00;99.90
59923;DHT22;45778;51.142;3.732;2024-01-11T08:00:32;-3.00;99.90
59923;DHT22;45778;51.142;3.732;2024-01-11T08:02:59;-3.00;99.90
59923;DHT22;45778;51.142;3.732;2024-01-11T08:05:25;-3.10;99.90
59923;DHT22;45778;51.142;3.732;2024-01-11T08:07:51;-3.10;99.90
59923;DHT22;45778;51.142;3.732;2024-01-11T08:10:16;-3.00;99.90
59923;DHT22;45778;51.142;3.732;2024-01-11T08:12:42;-3.10;99.90
59923;DHT22;45778;51.142;3.732;2024-01-11T08:15:08;-3.10;99.90
59923;DHT22;45778;51.142;3.732;2024-01-11T08:17:44;-2.90;99.90
59923;DHT22;45778;51.142;3.732;2024-01-11T08:20:10;-2.90;99.90
59923;DHT22;45778;51.142;3.732;2024-01-11T08:22:43;-2.80;99.90
59923;DHT22;45778;51.142;3.732;2024-01-11T08:25:10;-2.70;99.90
59923;DHT22;45778;51.142;3.732;2024-01-11T08:27:36;-2.80;99.90
59923;DHT22;45778;51.142;3.732;2024-01-11T08:30:01;-2.70;99.90
59923;DHT22;45778;51.142;3.732;2024-01-11T08:32:28;-2.60;99.90
59923;DHT22;45778;51.142;3.732;2024-01-11T08:34:54;-2.50;99.90
59923;DHT22;45778;51.142;3.732;2024-01-11T08:37:20;-2.50;99.90
59923;DHT22;45778;51.142;3.732;2024-01-11T08:39:45;-2.60;99.90
59923;DHT22;45778;51.142;3.732;2024-01-11T08:42:12;-2.70;99.90
59923;DHT22;45778;51.142;3.732;2024-01-11T08:44:41;-2.50;99.90
59923;DHT22;45778;51.142;3.732;2024-01-11T08:47:08;-2.60;99.90
59923;DHT22;45778;51.142;3.732;2024-01-11T08:52:10;-2.40;99.90
59923;DHT22;45778;51.142;3.732;2024-01-11T08:54:35;-2.10;99.90
59923;DHT22;45778;51.142;3.732;2024-01-11T08:57:01;-2.30;99.90
59923;DHT22;45778;51.142;3.732;2024-01-11T08:59:27;-2.20;99.90
59923;DHT22;45778;51.142;3.732;2024-01-11T09:01:53;-2.20;99.90
59923;DHT22;45778;51.142;3.732;2024-01-11T09:04:18;-2.20;99.90
59923;DHT22;45778;51.142;3.732;2024-01-11T09:09:19;-2.00;99.90
59923;DHT22;45778;51.142;3.732;2024-01-11T09:11:45;-1.50;99.90
59923;DHT22;45778;51.142;3.732;2024-01-11T09:14:11;-1.90;99.90
59923;DHT22;45778;51.142;3.732;2024-01-11T09:16:38;-1.90;99.90
59923;DHT22;45778;51.142;3.732;2024-01-11T09:19:05;-1.70;99.90
59923;DHT22;45778;51.142;3.732;2024-01-11T09:21:31;-1.60;99.90
59923;DHT22;45778;51.142;3.732;2024-01-11T09:23:56;-1.70;99.90
59923;DHT22;45778;51.142;3.732;2024-01-11T09:26:22;-1.70;99.90
59923;DHT22;45778;51.142;3.732;2024-01-11T09:28:48;-1.60;99.90
59923;DHT22;45778;51.142;3.732;2024-01-11T09:31:14;-1.40;99.90
59923;DHT22;45778;51.142;3.732;2024-01-11T09:33:39;-1.40;99.90
59923;DHT22;45778;51.142;3.732;2024-01-11T09:36:06;-1.40;99.90
59923;DHT22;45778;51.142;3.732;2024-01-11T09:38:32;-1.40;99.90
59923;DHT22;45778;51.142;3.732;2024-01-11T09:41:09;-1.30;99.90
59923;DHT22;45778;51.142;3.732;2024-01-11T09:43:36;-1.20;99.90
59923;DHT22;45778;51.142;3.732;2024-01-11T09:46:05;-1.00;99.90
59923;DHT22;45778;51.142;3.732;2024-01-11T09:48:35;-0.90;99.90
59923;DHT22;45778;51.142;3.732;2024-01-11T09:51:02;-0.90;99.90
59923;DHT22;45778;51.142;3.732;2024-01-11T09:53:34;-0.90;99.90
59923;DHT22;45778;51.142;3.732;2024-01-11T09:56:02;-0.90;99.90
59923;DHT22;45778;51.142;3.732;2024-01-11T09:58:31;-0.60;99.90
59923;DHT22;45778;51.142;3.732;2024-01-11T10:00:58;-0.60;99.90
59923;DHT22;45778;51.142;3.732;2024-01-11T10:03:25;-0.60;99.90
59923;DHT22;45778;51.142;3.732;2024-01-11T10:05:55;-0.30;99.90
59923;DHT22;45778;51.142;3.732;2024-01-11T10:08:22;-0.50;99.90
59923;DHT22;45778;51.142;3.732;2024-01-11T10:10:48;-0.50;99.90
59923;DHT22;45778;51.142;3.732;2024-01-11T10:13:15;-0.30;99.90
59923;DHT22;45778;51.142;3.732;2024-01-11T10:15:42;-0.30;99.90
59923;DHT22;45778;51.142;3.732;2024-01-11T10:18:07;-0.30;99.90
59923;DHT22;45778;51.142;3.732;2024-01-11T10:20:33;-0.30;99.90
59923;DHT22;45778;51.142;3.732;2024-01-11T10:22:58;-0.30;99.90
59923;DHT22;45778;51.142;3.732;2024-01-11T10:25:25;-0.20;99.90
59923;DHT22;45778;51.142;3.732;2024-01-11T10:27:51;-0.30;99.90
59923;DHT22;45778;51.142;3.732;2024-01-11T10:30:17;-0.30;99.90
59923;DHT22;45778;51.142;3.732;2024-01-11T10:32:43;0.00;99.90
59923;DHT22;45778;51.142;3.732;2024-01-11T10:35:09;0.10;99.90
59923;DHT22;45778;51.142;3.732;2024-01-11T10:37:36;0.10;99.90
59923;DHT22;45778;51.142;3.732;2024-01-11T10:40:05;0.30;99.90
59923;DHT22;45778;51.142;3.732;2024-01-11T10:42:51;0.30;99.90
59923;DHT22;45778;51.142;3.732;2024-01-11T10:45:19;0.40;99.90
59923;DHT22;45778;51.142;3.732;2024-01-11T10:47:55;0.50;99.90
59923;DHT22;45778;51.142;3.732;2024-01-11T10:50:23;0.70;99.90
59923;DHT22;45778;51.142;3.732;2024-01-11T10:55:46;0.80;99.90
59923;DHT22;45778;51.142;3.732;2024-01-11T10:58:13;1.00;99.90
59923;DHT22;45778;51.142;3.732;2024-01-11T11:00:40;1.00;99.90
59923;DHT22;45778;51.142;3.732;2024-01-11T11:03:07;1.20;99.90
59923;DHT22;45778;51.142;3.732;2024-01-11T11:05:35;1.30;99.90
59923;DHT22;45778;51.142;3.732;2024-01-11T11:08:04;1.30;99.90
59923;DHT22;45778;51.142;3.732;2024-01-11T11:10:32;1.30;99.90
59923;DHT22;45778;51.142;3.732;2024-01-11T11:13:00;1.30;99.90
59923;DHT22;45778;51.142;3.732;2024-01-11T11:15:29;1.60;99.90
59923;DHT22;45778;51.142;3.732;2024-01-11T11:17:56;1.70;99.90
59923;DHT22;45778;51.142;3.732;2024-01-11T11:20:22;1.60;99.90
59923;DHT22;45778;51.142;3.732;2024-01-11T11:23:09;1.50;99.90
59923;DHT22;45778;51.142;3.732;2024-01-11T11:25:36;1.50;99.90
59923;DHT22;45778;51.142;3.732;2024-01-11T11:28:03;1.60;99.90
59923;DHT22;45778;51.142;3.732;2024-01-11T11:30:33;1.80;99.90
59923;DHT22;45778;51.142;3.732;2024-01-11T11:33:23;1.70;99.90
59923;DHT22;45778;51.142;3.732;2024-01-11T11:35:52;1.70;99.90
59923;DHT22;45778;51.142;3.732;2024-01-11T11:38:23;1.60;99.90
59923;DHT22;45778;51.142;3.732;2024-01-11T11:40:52;1.70;99.90
59923;DHT22;45778;51.142;3.732;2024-01-11T11:43:23;1.80;99.90
59923;DHT22;45778;51.142;3.732;2024-01-11T11:45:50;1.90;99.90
59923;DHT22;45778;51.142;3.732;2024-01-11T11:51:08;2.20;99.90
59923;DHT22;45778;51.142;3.732;2024-01-11T11:53:35;2.00;99.90
59923;DHT22;45778;51.142;3.732;2024-01-11T11:56:01;2.20;99.90
59923;DHT22;45778;51.142;3.732;2024-01-11T11:58:31;2.40;99.90
59923;DHT22;45778;51.142;3.732;2024-01-11T12:00:58;2.40;99.90
59923;DHT22;45778;51.142;3.732;2024-01-11T12:11:13;2.80;99.90
59923;DHT22;45778;51.142;3.732;2024-01-11T12:13:40;3.20;99.90
59923;DHT22;45778;51.142;3.732;2024-01-11T12:16:09;3.60;99.90
59923;DHT22;45778;51.142;3.732;2024-01-11T12:18:34;4.20;99.90
59923;DHT22;45778;51.142;3.732;2024-01-11T12:21:00;4.90;99.90
59923;DHT22;45778;51.142;3.732;2024-01-11T12:23:27;5.20;99.90
59923;DHT22;45778;51.142;3.732;2024-01-11T12:25:57;5.10;99.90
59923;DHT22;45778;51.142;3.732;2024-01-11T12:28:23;5.60;99.90
59923;DHT22;45778;51.142;3.732;2024-01-11T12:30:50;6.30;99.90
59923;DHT22;45778;51.142;3.732;2024-01-11T12:33:15;6.90;99.90
59923;DHT22;45778;51.142;3.732;2024-01-11T12:35:42;7.60;99.60
59923;DHT22;45778;51.142;3.732;2024-01-11T12:38:07;8.10;97.10
59923;DHT22;45778;51.142;3.732;2024-01-11T12:40:38;8.70;95.90
59923;DHT22;45778;51.142;3.732;2024-01-11T12:43:04;9.20;95.10
59923;DHT22;45778;51.142;3.732;2024-01-11T12:45:31;9.40;93.50
59923;DHT22;45778;51.142;3.732;2024-01-11T12:48:01;9.50;93.20
59923;DHT22;45778;51.142;3.732;2024-01-11T12:50:29;9.70;92.30
59923;DHT22;45778;51.142;3.732;2024-01-11T12:53:14;10.00;91.60
59923;DHT22;45778;51.142;3.732;2024-01-11T12:56:05;10.20;90.60
59923;DHT22;45778;51.142;3.732;2024-01-11T12:58:36;10.50;89.30
59923;DHT22;45778;51.142;3.732;2024-01-11T13:01:04;10.90;86.30
59923;DHT22;45778;51.142;3.732;2024-01-11T13:03:30;11.40;85.00
59923;DHT22;45778;51.142;3.732;2024-01-11T13:05:56;10.80;83.90
59923;DHT22;45778;51.142;3.732;2024-01-11T13:08:22;10.50;83.60
59923;DHT22;45778;51.142;3.732;2024-01-11T13:10:49;10.30;83.80
59923;DHT22;45778;51.142;3.732;2024-01-11T13:13:15;10.20;83.30
59923;DHT22;45778;51.142;3.732;2024-01-11T13:15:45;9.90;83.50
59923;DHT22;45778;51.142;3.732;2024-01-11T13:18:11;9.50;85.00
59923;DHT22;45778;51.142;3.732;2024-01-11T13:20:37;8.90;85.90
59923;DHT22;45778;51.142;3.732;2024-01-11T13:25:45;9.20;85.40
59923;DHT22;45778;51.142;3.732;2024-01-11T13:28:11;9.00;86.60
59923;DHT22;45778;51.142;3.732;2024-01-11T13:30:38;9.30;86.80
59923;DHT22;45778;51.142;3.732;2024-01-11T13:33:05;8.90;88.00
59923;DHT22;45778;51.142;3.732;2024-01-11T13:35:30;8.30;88.60
59923;DHT22;45778;51.142;3.732;2024-01-11T13:37:56;9.00;89.40
59923;DHT22;45778;51.142;3.732;2024-01-11T13:40:22;9.40;88.90
59923;DHT22;45778;51.142;3.732;2024-01-11T13:42:48;9.10;90.20
59923;DHT22;45778;51.142;3.732;2024-01-11T13:45:13;8.90;91.20
59923;DHT22;45778;51.142;3.732;2024-01-11T13:47:39;9.40;91.50
59923;DHT22;45778;51.142;3.732;2024-01-11T13:50:05;9.70;92.50
59923;DHT22;45778;51.142;3.732;2024-01-11T13:52:31;9.00;94.30
59923;DHT22;45778;51.142;3.732;2024-01-11T13:54:56;8.30;96.50
59923;DHT22;45778;51.142;3.732;2024-01-11T13:57:22;7.30;98.50
59923;DHT22;45778;51.142;3.732;2024-01-11T13:59:49;7.60;99.00
59923;DHT22;45778;51.142;3.732;2024-01-11T14:02:19;7.40;98.90
59923;DHT22;45778;51.142;3.732;2024-01-11T14:04:44;7.30;99.90
59923;DHT22;45778;51.142;3.732;2024-01-11T14:07:10;7.60;99.80
59923;DHT22;45778;51.142;3.732;2024-01-11T14:09:36;8.00;99.30
59923;DHT22;45778;51.142;3.732;2024-01-11T14:12:01;8.10;99.40
59923;DHT22;45778;51.142;3.732;2024-01-11T14:14:27;7.70;99.30
59923;DHT22;45778;51.142;3.732;2024-01-11T14:16:52;7.90;99.70
59923;DHT22;45778;51.142;3.732;2024-01-11T14:19:18;7.50;99.70
59923;DHT22;45778;51.142;3.732;2024-01-11T14:21:44;7.00;99.90
59923;DHT22;45778;51.142;3.732;2024-01-11T14:24:09;6.70;99.90
59923;DHT22;45778;51.142;3.732;2024-01-11T14:26:35;6.40;99.90
59923;DHT22;45778;51.142;3.732;2024-01-11T14:29:01;5.70;99.90
59923;DHT22;45778;51.142;3.732;2024-01-11T14:31:27;5.30;99.90
59923;DHT22;45778;51.142;3.732;2024-01-11T14:33:53;4.80;99.90
59923;DHT22;45778;51.142;3.732;2024-01-11T14:36:18;4.80;99.90
59923;DHT22;45778;51.142;3.732;2024-01-11T14:38:44;4.70;99.90
59923;DHT22;45778;51.142;3.732;2024-01-11T14:41:10;4.70;99.90
59923;DHT22;45778;51.142;3.732;2024-01-11T14:43:35;4.60;99.90
59923;DHT22;45778;51.142;3.732;2024-01-11T14:46:01;4.50;99.90
59923;DHT22;45778;51.142;3.732;2024-01-11T14:48:27;4.40;99.90
59923;DHT22;45778;51.142;3.732;2024-01-11T14:50:59;4.50;99.90
59923;DHT22;45778;51.142;3.732;2024-01-11T14:53:24;4.30;99.90
59923;DHT22;45778;51.142;3.732;2024-01-11T14:55:50;4.30;99.90
59923;DHT22;45778;51.142;3.732;2024-01-11T14:58:16;4.10;99.90
59923;DHT22;45778;51.142;3.732;2024-01-11T15:00:45;4.30;99.90
59923;DHT22;45778;51.142;3.732;2024-01-11T15:03:10;4.20;99.90
59923;DHT22;45778;51.142;3.732;2024-01-11T15:05:37;4.20;99.90
59923;DHT22;45778;51.142;3.732;2024-01-11T15:08:02;4.00;99.90
59923;DHT22;45778;51.142;3.732;2024-01-11T15:10:28;4.00;99.90
59923;DHT22;45778;51.142;3.732;2024-01-11T15:12:54;4.00;99.90
59923;DHT22;45778;51.142;3.732;2024-01-11T15:15:19;3.80;99.90
59923;DHT22;45778;51.142;3.732;2024-01-11T15:17:45;3.70;99.90
59923;DHT22;45778;51.142;3.732;2024-01-11T15:20:12;3.70;99.90
59923;DHT22;45778;51.142;3.732;2024-01-11T15:22:38;3.60;99.90
59923;DHT22;45778;51.142;3.732;2024-01-11T15:25:04;3.60;99.90
59923;DHT22;45778;51.142;3.732;2024-01-11T15:27:30;3.80;99.90
59923;DHT22;45778;51.142;3.732;2024-01-11T15:29:56;3.60;99.90
59923;DHT22;45778;51.142;3.732;2024-01-11T15:32:22;3.70;99.90
59923;DHT22;45778;51.142;3.732;2024-01-11T15:34:48;3.60;99.90
59923;DHT22;45778;51.142;3.732;2024-01-11T15:37:14;3.60;99.90
59923;DHT22;45778;51.142;3.732;2024-01-11T15:39:40;3.50;99.90
59923;DHT22;45778;51.142;3.732;2024-01-11T15:42:06;3.60;99.90
59923;DHT22;45778;51.142;3.732;2024-01-11T15:44:31;3.50;99.90
59923;DHT22;45778;51.142;3.732;2024-01-11T15:46:59;3.60;99.90
59923;DHT22;45778;51.142;3.732;2024-01-11T15:49:26;3.60;99.90
59923;DHT22;45778;51.142;3.732;2024-01-11T15:51:52;3.60;99.90
59923;DHT22;45778;51.142;3.732;2024-01-11T15:54:18;3.40;99.90
59923;DHT22;45778;51.142;3.732;2024-01-11T15:56:45;3.70;99.90
59923;DHT22;45778;51.142;3.732;2024-01-11T15:59:11;3.40;99.90
59923;DHT22;45778;51.142;3.732;2024-01-11T16:01:38;3.30;99.90
59923;DHT22;45778;51.142;3.732;2024-01-11T16:04:04;3.30;99.90
59923;DHT22;45778;51.142;3.732;2024-01-11T16:06:30;3.30;99.90
59923;DHT22;45778;51.142;3.732;2024-01-11T16:08:56;3.30;99.90
59923;DHT22;45778;51.142;3.732;2024-01-11T16:11:22;3.10;99.90
59923;DHT22;45778;51.142;3.732;2024-01-11T16:13:48;3.10;99.90
59923;DHT22;45778;51.142;3.732;2024-01-11T16:16:14;3.20;99.90
59923;DHT22;45778;51.142;3.732;2024-01-11T16:18:40;3.20;99.90
59923;DHT22;45778;51.142;3.732;2024-01-11T16:21:06;3.20;99.90
59923;DHT22;45778;51.142;3.732;2024-01-11T16:23:32;3.10;99.90
59923;DHT22;45778;51.142;3.732;2024-01-11T16:25:59;3.10;99.90
59923;DHT22;45778;51.142;3.732;2024-01-11T16:28:28;3.10;99.90